sensor_id;sensor_type;location;lat;lon;timestamp;P1;durP1;ratioP1;P2;durP2;ratioP2
17441;SDS011;8838;50.144;8.176;2023-03-04T00:02:21;109.77;;;35.47;;
17441;SDS011;8838;50.144;8.176;2023-03-04T00:04:48;101.77;;;33.90;;
17441;SDS011;8838;50.144;8.176;2023-03-04T00:07:15;104.33;;;35.27;;
17441;SDS011;8838;50.144;8.176;2023-03-04T00:09:43;105.83;;;34.23;;
17441;SDS011;8838;50.144;8.176;2023-03-04T00:12:10;104.70;;;35.63;;
17441;SDS011;8838;50.144;8.176;2023-03-04T00:14:37;102.97;;;33.27;;
17441;SDS011;8838;50.144;8.176;2023-03-04T00:17:04;95.00;;;32.77;;
17441;SDS011;8838;50.144;8.176;2023-03-04T00:19:32;104.40;;;34.23;;
17441;SDS011;8838;50.144;8.176;2023-03-04T00:22:01;104.80;;;35.07;;
17441;SDS011;8838;50.144;8.176;2023-03-04T00:24:28;105.33;;;33.97;;
17441;SDS011;8838;50.144;8.176;2023-03-04T00:26:55;92.37;;;32.67;;
17441;SDS011;8838;50.144;8.176;2023-03-04T00:29:22;109.37;;;34.97;;
17441;SDS011;8838;50.144;8.176;2023-03-04T00:31:49;93.23;;;33.30;;
17441;SDS011;8838;50.144;8.176;2023-03-04T00:34:16;99.77;;;34.13;;
17441;SDS011;8838;50.144;8.176;2023-03-04T00:36:44;95.80;;;32.97;;
17441;SDS011;8838;50.144;8.176;2023-03-04T00:39:11;96.53;;;33.10;;
17441;SDS011;8838;50.144;8.176;2023-03-04T00:41:38;92.80;;;32.03;;
17441;SDS011;8838;50.144;8.176;2023-03-04T00:44:05;98.17;;;33.20;;
17441;SDS011;8838;50.144;8.176;2023-03-04T00:46:32;92.53;;;31.53;;
17441;SDS011;8838;50.144;8.176;2023-03-04T00:48:59;89.60;;;31.87;;
17441;SDS011;8838;50.144;8.176;2023-03-04T00:51:25;92.07;;;31.90;;
17441;SDS011;8838;50.144;8.176;2023-03-04T00:53:54;93.53;;;32.30;;
17441;SDS011;8838;50.144;8.176;2023-03-04T00:56:20;92.80;;;32.73;;
17441;SDS011;8838;50.144;8.176;2023-03-04T00:58:49;98.53;;;31.80;;
17441;SDS011;8838;50.144;8.176;2023-03-04T01:01:16;98.27;;;34.03;;
17441;SDS011;8838;50.144;8.176;2023-03-04T01:03:43;97.73;;;33.33;;
17441;SDS011;8838;50.144;8.176;2023-03-04T01:06:10;96.10;;;33.60;;
17441;SDS011;8838;50.144;8.176;2023-03-04T01:08:37;89.67;;;31.43;;
17441;SDS011;8838;50.144;8.176;2023-03-04T01:11:06;94.97;;;31.93;;
17441;SDS011;8838;50.144;8.176;2023-03-04T01:13:33;99.70;;;32.77;;
17441;SDS011;8838;50.144;8.176;2023-03-04T01:16:04;92.80;;;33.10;;
17441;SDS011;8838;50.144;8.176;2023-03-04T01:18:31;92.63;;;32.87;;
17441;SDS011;8838;50.144;8.176;2023-03-04T01:20:58;95.43;;;32.63;;
17441;SDS011;8838;50.144;8.176;2023-03-04T01:23:25;88.23;;;32.20;;
17441;SDS011;8838;50.144;8.176;2023-03-04T01:25:51;91.07;;;30.73;;
17441;SDS011;8838;50.144;8.176;2023-03-04T01:28:20;86.57;;;31.90;;
17441;SDS011;8838;50.144;8.176;2023-03-04T01:30:47;90.17;;;31.43;;
17441;SDS011;8838;50.144;8.176;2023-03-04T01:33:13;79.13;;;29.90;;
17441;SDS011;8838;50.144;8.176;2023-03-04T01:35:41;82.83;;;30.20;;
17441;SDS011;8838;50.144;8.176;2023-03-04T01:38:07;84.10;;;31.27;;
17441;SDS011;8838;50.144;8.176;2023-03-04T01:40:34;83.90;;;30.20;;
17441;SDS011;8838;50.144;8.176;2023-03-04T01:43:03;78.47;;;29.43;;
17441;SDS011;8838;50.144;8.176;2023-03-04T01:45:31;81.37;;;31.50;;
17441;SDS011;8838;50.144;8.176;2023-03-04T01:47:58;75.97;;;28.20;;
17441;SDS011;8838;50.144;8.176;2023-03-04T01:50:26;74.50;;;27.83;;
17441;SDS011;8838;50.144;8.176;2023-03-04T01:52:56;82.97;;;29.83;;
17441;SDS011;8838;50.144;8.176;2023-03-04T01:55:23;72.60;;;28.93;;
17441;SDS011;8838;50.144;8.176;2023-03-04T01:57:55;80.03;;;29.53;;
17441;SDS011;8838;50.144;8.176;2023-03-04T02:00:24;79.10;;;28.87;;
17441;SDS011;8838;50.144;8.176;2023-03-04T02:02:57;66.73;;;27.43;;
17441;SDS011;8838;50.144;8.176;2023-03-04T02:05:26;67.67;;;27.63;;
17441;SDS011;8838;50.144;8.176;2023-03-04T02:07:54;77.07;;;30.03;;
17441;SDS011;8838;50.144;8.176;2023-03-04T02:10:22;74.47;;;28.80;;
17441;SDS011;8838;50.144;8.176;2023-03-04T02:12:49;78.23;;;28.70;;
17441;SDS011;8838;50.144;8.176;2023-03-04T02:15:16;69.60;;;27.63;;
17441;SDS011;8838;50.144;8.176;2023-03-04T02:17:43;68.60;;;27.00;;
17441;SDS011;8838;50.144;8.176;2023-03-04T02:20:14;73.03;;;28.97;;
17441;SDS011;8838;50.144;8.176;2023-03-04T02:22:50;70.40;;;27.47;;
17441;SDS011;8838;50.144;8.176;2023-03-04T02:25:27;69.20;;;29.00;;
17441;SDS011;8838;50.144;8.176;2023-03-04T02:27:59;64.17;;;26.60;;
17441;SDS011;8838;50.144;8.176;2023-03-04T02:30:26;69.47;;;28.07;;
17441;SDS011;8838;50.144;8.176;2023-03-04T02:32:53;69.40;;;28.57;;
17441;SDS011;8838;50.144;8.176;2023-03-04T02:35:20;68.70;;;27.03;;
17441;SDS011;8838;50.144;8.176;2023-03-04T02:37:47;66.40;;;27.83;;
17441;SDS011;8838;50.144;8.176;2023-03-04T02:40:15;67.47;;;28.50;;
17441;SDS011;8838;50.144;8.176;2023-03-04T02:42:46;65.70;;;27.50;;
17441;SDS011;8838;50.144;8.176;2023-03-04T02:45:36;64.20;;;26.83;;
17441;SDS011;8838;50.144;8.176;2023-03-04T02:48:06;68.97;;;27.50;;
17441;SDS011;8838;50.144;8.176;2023-03-04T02:50:34;66.33;;;27.53;;
17441;SDS011;8838;50.144;8.176;2023-03-04T02:53:03;71.33;;;29.17;;
17441;SDS011;8838;50.144;8.176;2023-03-04T02:55:32;66.57;;;28.93;;
17441;SDS011;8838;50.144;8.176;2023-03-04T02:57:59;72.93;;;29.83;;
17441;SDS011;8838;50.144;8.176;2023-03-04T03:00:26;71.50;;;30.07;;
17441;SDS011;8838;50.144;8.176;2023-03-04T03:02:54;68.27;;;30.50;;
17441;SDS011;8838;50.144;8.176;2023-03-04T03:05:22;70.30;;;31.70;;
17441;SDS011;8838;50.144;8.176;2023-03-04T03:07:50;63.60;;;29.30;;
17441;SDS011;8838;50.144;8.176;2023-03-04T03:10:17;67.90;;;29.87;;
17441;SDS011;8838;50.144;8.176;2023-03-04T03:12:45;66.40;;;29.50;;
17441;SDS011;8838;50.144;8.176;2023-03-04T03:15:12;75.33;;;30.50;;
17441;SDS011;8838;50.144;8.176;2023-03-04T03:17:39;69.97;;;31.77;;
17441;SDS011;8838;50.144;8.176;2023-03-04T03:20:09;71.33;;;30.93;;
17441;SDS011;8838;50.144;8.176;2023-03-04T03:22:38;65.70;;;31.07;;
17441;SDS011;8838;50.144;8.176;2023-03-04T03:25:05;70.07;;;32.17;;
17441;SDS011;8838;50.144;8.176;2023-03-04T03:27:33;70.10;;;32.60;;
17441;SDS011;8838;50.144;8.176;2023-03-04T03:30:00;77.07;;;34.53;;
17441;SDS011;8838;50.144;8.176;2023-03-04T03:32:28;74.37;;;33.87;;
17441;SDS011;8838;50.144;8.176;2023-03-04T03:34:55;75.53;;;34.87;;
17441;SDS011;8838;50.144;8.176;2023-03-04T03:37:23;77.73;;;35.77;;
17441;SDS011;8838;50.144;8.176;2023-03-04T03:39:50;77.37;;;36.10;;
17441;SDS011;8838;50.144;8.176;2023-03-04T03:42:17;81.80;;;36.97;;
17441;SDS011;8838;50.144;8.176;2023-03-04T03:44:44;78.70;;;36.00;;
17441;SDS011;8838;50.144;8.176;2023-03-04T03:47:11;77.93;;;36.27;;
17441;SDS011;8838;50.144;8.176;2023-03-04T03:49:37;80.90;;;36.33;;
17441;SDS011;8838;50.144;8.176;2023-03-04T03:52:04;86.07;;;38.27;;
17441;SDS011;8838;50.144;8.176;2023-03-04T03:54:33;81.23;;;38.20;;
17441;SDS011;8838;50.144;8.176;2023-03-04T03:57:00;84.83;;;38.63;;
17441;SDS011;8838;50.144;8.176;2023-03-04T03:59:27;81.17;;;37.60;;
17441;SDS011;8838;50.144;8.176;2023-03-04T04:01:54;79.27;;;36.50;;
17441;SDS011;8838;50.144;8.176;2023-03-04T04:04:21;75.50;;;37.17;;
17441;SDS011;8838;50.144;8.176;2023-03-04T04:06:48;76.40;;;36.80;;
17441;SDS011;8838;50.144;8.176;2023-03-04T04:09:14;83.90;;;36.83;;
17441;SDS011;8838;50.144;8.176;2023-03-04T04:11:43;79.13;;;36.60;;
17441;SDS011;8838;50.144;8.176;2023-03-04T04:14:10;72.37;;;36.93;;
17441;SDS011;8838;50.144;8.176;2023-03-04T04:16:39;76.43;;;35.90;;
17441;SDS011;8838;50.144;8.176;2023-03-04T04:19:06;75.67;;;36.30;;
17441;SDS011;8838;50.144;8.176;2023-03-04T04:21:35;75.80;;;35.80;;
17441;SDS011;8838;50.144;8.176;2023-03-04T04:24:02;70.07;;;34.10;;
17441;SDS011;8838;50.144;8.176;2023-03-04T04:26:29;72.13;;;35.60;;
17441;SDS011;8838;50.144;8.176;2023-03-04T04:28:57;77.13;;;35.53;;
17441;SDS011;8838;50.144;8.176;2023-03-04T04:31:24;66.93;;;33.20;;
17441;SDS011;8838;50.144;8.176;2023-03-04T04:33:51;70.37;;;33.37;;
17441;SDS011;8838;50.144;8.176;2023-03-04T04:36:17;70.40;;;32.43;;
17441;SDS011;8838;50.144;8.176;2023-03-04T04:38:44;78.93;;;36.03;;
17441;SDS011;8838;50.144;8.176;2023-03-04T04:41:16;74.07;;;35.37;;
17441;SDS011;8838;50.144;8.176;2023-03-04T04:43:45;71.53;;;33.60;;
17441;SDS011;8838;50.144;8.176;2023-03-04T04:46:14;74.53;;;35.17;;
17441;SDS011;8838;50.144;8.176;2023-03-04T04:48:41;75.13;;;34.13;;
17441;SDS011;8838;50.144;8.176;2023-03-04T04:51:08;73.93;;;34.97;;
17441;SDS011;8838;50.144;8.176;2023-03-04T04:53:36;63.50;;;31.87;;
17441;SDS011;8838;50.144;8.176;2023-03-04T04:56:09;68.37;;;32.63;;
17441;SDS011;8838;50.144;8.176;2023-03-04T04:58:37;68.83;;;31.50;;
17441;SDS011;8838;50.144;8.176;2023-03-04T05:01:04;67.17;;;31.67;;
17441;SDS011;8838;50.144;8.176;2023-03-04T05:03:33;69.93;;;31.00;;
17441;SDS011;8838;50.144;8.176;2023-03-04T05:06:02;67.77;;;30.57;;
17441;SDS011;8838;50.144;8.176;2023-03-04T05:08:29;65.57;;;29.60;;
17441;SDS011;8838;50.144;8.176;2023-03-04T05:10:56;64.27;;;29.00;;
17441;SDS011;8838;50.144;8.176;2023-03-04T05:13:23;74.37;;;30.87;;
17441;SDS011;8838;50.144;8.176;2023-03-04T05:15:50;64.07;;;28.73;;
17441;SDS011;8838;50.144;8.176;2023-03-04T05:18:18;66.13;;;28.50;;
17441;SDS011;8838;50.144;8.176;2023-03-04T05:20:49;66.67;;;29.33;;
17441;SDS011;8838;50.144;8.176;2023-03-04T05:23:17;63.50;;;28.03;;
17441;SDS011;8838;50.144;8.176;2023-03-04T05:25:45;61.07;;;28.37;;
17441;SDS011;8838;50.144;8.176;2023-03-04T05:28:12;63.20;;;28.60;;
17441;SDS011;8838;50.144;8.176;2023-03-04T05:30:39;64.27;;;27.70;;
17441;SDS011;8838;50.144;8.176;2023-03-04T05:33:07;65.70;;;30.37;;
17441;SDS011;8838;50.144;8.176;2023-03-04T05:35:35;64.33;;;29.13;;
17441;SDS011;8838;50.144;8.176;2023-03-04T05:38:07;59.33;;;27.17;;
17441;SDS011;8838;50.144;8.176;2023-03-04T05:40:36;64.80;;;28.70;;
17441;SDS011;8838;50.144;8.176;2023-03-04T05:43:03;60.77;;;27.57;;
17441;SDS011;8838;50.144;8.176;2023-03-04T05:45:30;60.57;;;26.70;;
17441;SDS011;8838;50.144;8.176;2023-03-04T05:47:57;64.10;;;26.70;;
17441;SDS011;8838;50.144;8.176;2023-03-04T05:50:24;64.00;;;27.23;;
17441;SDS011;8838;50.144;8.176;2023-03-04T05:52:51;66.97;;;26.63;;
17441;SDS011;8838;50.144;8.176;2023-03-04T05:55:20;55.80;;;25.93;;
17441;SDS011;8838;50.144;8.176;2023-03-04T05:57:46;59.70;;;25.90;;
17441;SDS011;8838;50.144;8.176;2023-03-04T06:00:14;62.30;;;26.63;;
17441;SDS011;8838;50.144;8.176;2023-03-04T06:02:42;64.23;;;26.37;;
17441;SDS011;8838;50.144;8.176;2023-03-04T06:05:10;61.43;;;26.80;;
17441;SDS011;8838;50.144;8.176;2023-03-04T06:07:38;57.47;;;25.77;;
17441;SDS011;8838;50.144;8.176;2023-03-04T06:10:07;59.37;;;25.90;;
17441;SDS011;8838;50.144;8.176;2023-03-04T06:12:37;60.27;;;25.97;;
17441;SDS011;8838;50.144;8.176;2023-03-04T06:15:04;60.03;;;24.93;;
17441;SDS011;8838;50.144;8.176;2023-03-04T06:17:34;59.40;;;24.47;;
17441;SDS011;8838;50.144;8.176;2023-03-04T06:20:01;54.40;;;25.87;;
17441;SDS011;8838;50.144;8.176;2023-03-04T06:22:29;55.17;;;25.13;;
17441;SDS011;8838;50.144;8.176;2023-03-04T06:24:56;57.60;;;23.80;;
17441;SDS011;8838;50.144;8.176;2023-03-04T06:27:23;58.90;;;25.10;;
17441;SDS011;8838;50.144;8.176;2023-03-04T06:29:51;56.60;;;23.53;;
17441;SDS011;8838;50.144;8.176;2023-03-04T06:32:18;55.93;;;24.00;;
17441;SDS011;8838;50.144;8.176;2023-03-04T06:34:44;53.63;;;24.10;;
17441;SDS011;8838;50.144;8.176;2023-03-04T06:37:11;49.33;;;23.13;;
17441;SDS011;8838;50.144;8.176;2023-03-04T06:39:38;48.83;;;21.60;;
17441;SDS011;8838;50.144;8.176;2023-03-04T06:42:05;50.93;;;22.63;;
17441;SDS011;8838;50.144;8.176;2023-03-04T06:44:32;54.67;;;23.20;;
17441;SDS011;8838;50.144;8.176;2023-03-04T06:47:00;52.53;;;23.07;;
17441;SDS011;8838;50.144;8.176;2023-03-04T06:49:27;47.43;;;21.50;;
17441;SDS011;8838;50.144;8.176;2023-03-04T06:51:56;48.40;;;21.53;;
17441;SDS011;8838;50.144;8.176;2023-03-04T06:54:23;49.33;;;20.67;;
17441;SDS011;8838;50.144;8.176;2023-03-04T06:56:50;49.47;;;21.27;;
17441;SDS011;8838;50.144;8.176;2023-03-04T06:59:17;52.40;;;20.90;;
17441;SDS011;8838;50.144;8.176;2023-03-04T07:01:44;48.53;;;20.97;;
17441;SDS011;8838;50.144;8.176;2023-03-04T07:04:13;54.43;;;22.53;;
17441;SDS011;8838;50.144;8.176;2023-03-04T07:06:39;50.17;;;21.80;;
17441;SDS011;8838;50.144;8.176;2023-03-04T07:09:09;53.70;;;21.53;;
17441;SDS011;8838;50.144;8.176;2023-03-04T07:11:36;47.57;;;20.10;;
17441;SDS011;8838;50.144;8.176;2023-03-04T07:14:04;46.03;;;19.53;;
17441;SDS011;8838;50.144;8.176;2023-03-04T07:16:32;47.83;;;19.43;;
17441;SDS011;8838;50.144;8.176;2023-03-04T07:18:59;46.80;;;19.33;;
17441;SDS011;8838;50.144;8.176;2023-03-04T07:21:27;45.40;;;17.67;;
17441;SDS011;8838;50.144;8.176;2023-03-04T07:23:55;51.20;;;21.70;;
17441;SDS011;8838;50.144;8.176;2023-03-04T07:26:22;55.20;;;20.47;;
17441;SDS011;8838;50.144;8.176;2023-03-04T07:28:50;52.60;;;19.90;;
17441;SDS011;8838;50.144;8.176;2023-03-04T07:31:19;46.77;;;19.63;;
17441;SDS011;8838;50.144;8.176;2023-03-04T07:33:48;42.83;;;18.63;;
17441;SDS011;8838;50.144;8.176;2023-03-04T07:36:15;50.40;;;19.77;;
17441;SDS011;8838;50.144;8.176;2023-03-04T07:38:45;44.43;;;19.27;;
17441;SDS011;8838;50.144;8.176;2023-03-04T07:41:13;49.83;;;19.47;;
17441;SDS011;8838;50.144;8.176;2023-03-04T07:43:41;47.33;;;19.93;;
17441;SDS011;8838;50.144;8.176;2023-03-04T07:46:08;50.03;;;19.23;;
17441;SDS011;8838;50.144;8.176;2023-03-04T07:48:35;41.27;;;17.60;;
17441;SDS011;8838;50.144;8.176;2023-03-04T07:51:03;51.30;;;18.33;;
17441;SDS011;8838;50.144;8.176;2023-03-04T07:53:31;42.67;;;18.40;;
17441;SDS011;8838;50.144;8.176;2023-03-04T07:56:00;48.23;;;17.60;;
17441;SDS011;8838;50.144;8.176;2023-03-04T07:58:28;49.23;;;18.80;;
17441;SDS011;8838;50.144;8.176;2023-03-04T08:00:55;47.33;;;19.23;;
17441;SDS011;8838;50.144;8.176;2023-03-04T08:03:22;47.90;;;19.80;;
17441;SDS011;8838;50.144;8.176;2023-03-04T08:05:49;53.43;;;21.77;;
17441;SDS011;8838;50.144;8.176;2023-03-04T08:08:16;50.13;;;20.90;;
17441;SDS011;8838;50.144;8.176;2023-03-04T08:10:46;61.80;;;21.90;;
17441;SDS011;8838;50.144;8.176;2023-03-04T08:13:14;53.53;;;23.07;;
17441;SDS011;8838;50.144;8.176;2023-03-04T08:15:41;60.13;;;21.50;;
17441;SDS011;8838;50.144;8.176;2023-03-04T08:18:11;56.00;;;22.07;;
17441;SDS011;8838;50.144;8.176;2023-03-04T08:20:40;54.67;;;21.37;;
17441;SDS011;8838;50.144;8.176;2023-03-04T08:23:08;50.17;;;22.00;;
17441;SDS011;8838;50.144;8.176;2023-03-04T08:25:37;57.63;;;22.60;;
17441;SDS011;8838;50.144;8.176;2023-03-04T08:28:05;51.50;;;21.17;;
17441;SDS011;8838;50.144;8.176;2023-03-04T08:30:38;58.70;;;23.50;;
17441;SDS011;8838;50.144;8.176;2023-03-04T08:33:06;59.17;;;21.77;;
17441;SDS011;8838;50.144;8.176;2023-03-04T08:35:35;54.40;;;21.50;;
17441;SDS011;8838;50.144;8.176;2023-03-04T08:38:03;54.40;;;21.50;;
17441;SDS011;8838;50.144;8.176;2023-03-04T08:40:30;59.67;;;21.97;;
17441;SDS011;8838;50.144;8.176;2023-03-04T08:42:57;56.40;;;19.60;;
17441;SDS011;8838;50.144;8.176;2023-03-04T08:45:24;44.93;;;17.53;;
17441;SDS011;8838;50.144;8.176;2023-03-04T08:47:53;43.07;;;17.50;;
17441;SDS011;8838;50.144;8.176;2023-03-04T08:50:20;42.47;;;17.67;;
17441;SDS011;8838;50.144;8.176;2023-03-04T08:52:47;56.80;;;25.47;;
17441;SDS011;8838;50.144;8.176;2023-03-04T08:55:14;42.27;;;17.30;;
17441;SDS011;8838;50.144;8.176;2023-03-04T08:57:41;42.43;;;16.57;;
17441;SDS011;8838;50.144;8.176;2023-03-04T09:00:08;42.07;;;16.93;;
17441;SDS011;8838;50.144;8.176;2023-03-04T09:02:36;45.47;;;17.23;;
17441;SDS011;8838;50.144;8.176;2023-03-04T09:05:05;37.67;;;14.67;;
17441;SDS011;8838;50.144;8.176;2023-03-04T09:07:33;42.40;;;15.27;;
17441;SDS011;8838;50.144;8.176;2023-03-04T09:09:59;37.63;;;14.17;;
17441;SDS011;8838;50.144;8.176;2023-03-04T09:12:26;34.43;;;14.67;;
17441;SDS011;8838;50.144;8.176;2023-03-04T09:14:54;37.10;;;14.00;;
17441;SDS011;8838;50.144;8.176;2023-03-04T09:17:22;39.33;;;14.77;;
17441;SDS011;8838;50.144;8.176;2023-03-04T09:19:49;44.77;;;14.17;;
17441;SDS011;8838;50.144;8.176;2023-03-04T09:22:17;37.77;;;14.43;;
17441;SDS011;8838;50.144;8.176;2023-03-04T09:24:44;40.13;;;14.93;;
17441;SDS011;8838;50.144;8.176;2023-03-04T09:27:11;37.93;;;14.07;;
17441;SDS011;8838;50.144;8.176;2023-03-04T09:29:41;43.47;;;17.30;;
17441;SDS011;8838;50.144;8.176;2023-03-04T09:32:08;41.73;;;15.53;;
17441;SDS011;8838;50.144;8.176;2023-03-04T09:34:35;42.70;;;15.17;;
17441;SDS011;8838;50.144;8.176;2023-03-04T09:37:02;44.27;;;15.07;;
17441;SDS011;8838;50.144;8.176;2023-03-04T09:39:31;50.40;;;15.53;;
17441;SDS011;8838;50.144;8.176;2023-03-04T09:41:58;31.80;;;13.27;;
17441;SDS011;8838;50.144;8.176;2023-03-04T09:44:27;37.53;;;12.50;;
17441;SDS011;8838;50.144;8.176;2023-03-04T09:46:58;36.50;;;15.93;;
17441;SDS011;8838;50.144;8.176;2023-03-04T09:49:30;37.23;;;14.23;;
17441;SDS011;8838;50.144;8.176;2023-03-04T09:51:59;38.50;;;14.67;;
17441;SDS011;8838;50.144;8.176;2023-03-04T09:54:35;32.57;;;12.53;;
17441;SDS011;8838;50.144;8.176;2023-03-04T09:57:22;37.83;;;13.27;;
17441;SDS011;8838;50.144;8.176;2023-03-04T09:59:55;30.80;;;11.40;;
17441;SDS011;8838;50.144;8.176;2023-03-04T10:02:41;31.73;;;12.33;;
17441;SDS011;8838;50.144;8.176;2023-03-04T10:05:12;31.37;;;11.90;;
17441;SDS011;8838;50.144;8.176;2023-03-04T10:07:44;31.03;;;11.40;;
17441;SDS011;8838;50.144;8.176;2023-03-04T10:10:16;29.63;;;10.70;;
17441;SDS011;8838;50.144;8.176;2023-03-04T10:12:47;34.57;;;12.00;;
17441;SDS011;8838;50.144;8.176;2023-03-04T10:15:17;35.93;;;11.37;;
17441;SDS011;8838;50.144;8.176;2023-03-04T10:17:49;31.47;;;11.47;;
17441;SDS011;8838;50.144;8.176;2023-03-04T10:20:23;28.87;;;11.00;;
17441;SDS011;8838;50.144;8.176;2023-03-04T10:22:55;29.50;;;10.30;;
17441;SDS011;8838;50.144;8.176;2023-03-04T10:25:26;25.63;;;10.27;;
17441;SDS011;8838;50.144;8.176;2023-03-04T10:27:54;27.80;;;10.50;;
17441;SDS011;8838;50.144;8.176;2023-03-04T10:30:29;28.03;;;10.00;;
17441;SDS011;8838;50.144;8.176;2023-03-04T10:33:08;23.17;;;9.93;;
17441;SDS011;8838;50.144;8.176;2023-03-04T10:35:37;29.63;;;11.87;;
17441;SDS011;8838;50.144;8.176;2023-03-04T10:38:04;23.47;;;9.77;;
17441;SDS011;8838;50.144;8.176;2023-03-04T10:40:37;23.30;;;9.63;;
17441;SDS011;8838;50.144;8.176;2023-03-04T10:43:11;28.40;;;8.83;;
17441;SDS011;8838;50.144;8.176;2023-03-04T10:45:40;18.87;;;8.07;;
17441;SDS011;8838;50.144;8.176;2023-03-04T10:48:15;20.37;;;8.13;;
17441;SDS011;8838;50.144;8.176;2023-03-04T10:50:44;25.33;;;9.00;;
17441;SDS011;8838;50.144;8.176;2023-03-04T10:53:19;27.23;;;9.67;;
17441;SDS011;8838;50.144;8.176;2023-03-04T10:55:55;26.83;;;10.80;;
17441;SDS011;8838;50.144;8.176;2023-03-04T10:58:21;22.33;;;8.87;;
17441;SDS011;8838;50.144;8.176;2023-03-04T11:01:01;22.83;;;9.20;;
17441;SDS011;8838;50.144;8.176;2023-03-04T11:03:30;22.77;;;9.30;;
17441;SDS011;8838;50.144;8.176;2023-03-04T11:06:06;22.47;;;8.80;;
17441;SDS011;8838;50.144;8.176;2023-03-04T11:08:40;20.90;;;7.83;;
17441;SDS011;8838;50.144;8.176;2023-03-04T11:11:22;21.93;;;8.57;;
17441;SDS011;8838;50.144;8.176;2023-03-04T11:13:50;18.97;;;7.53;;
17441;SDS011;8838;50.144;8.176;2023-03-04T11:16:25;19.33;;;7.73;;
17441;SDS011;8838;50.144;8.176;2023-03-04T11:18:55;18.70;;;7.60;;
17441;SDS011;8838;50.144;8.176;2023-03-04T11:21:26;20.70;;;7.37;;
17441;SDS011;8838;50.144;8.176;2023-03-04T11:23:56;16.47;;;6.57;;
17441;SDS011;8838;50.144;8.176;2023-03-04T11:26:29;24.80;;;7.23;;
17441;SDS011;8838;50.144;8.176;2023-03-04T11:29:01;19.03;;;7.10;;
17441;SDS011;8838;50.144;8.176;2023-03-04T11:31:35;15.90;;;6.70;;
17441;SDS011;8838;50.144;8.176;2023-03-04T11:34:07;21.97;;;7.47;;
17441;SDS011;8838;50.144;8.176;2023-03-04T11:36:44;19.93;;;8.70;;
17441;SDS011;8838;50.144;8.176;2023-03-04T11:39:21;20.73;;;7.23;;
17441;SDS011;8838;50.144;8.176;2023-03-04T11:41:57;17.13;;;7.50;;
17441;SDS011;8838;50.144;8.176;2023-03-04T11:44:28;22.67;;;7.97;;
17441;SDS011;8838;50.144;8.176;2023-03-04T11:47:06;21.50;;;8.17;;
17441;SDS011;8838;50.144;8.176;2023-03-04T11:49:58;18.77;;;7.27;;
17441;SDS011;8838;50.144;8.176;2023-03-04T11:52:38;18.10;;;7.07;;
17441;SDS011;8838;50.144;8.176;2023-03-04T11:55:24;18.03;;;7.67;;
17441;SDS011;8838;50.144;8.176;2023-03-04T11:58:03;18.17;;;7.83;;
17441;SDS011;8838;50.144;8.176;2023-03-04T12:00:43;16.77;;;6.67;;
17441;SDS011;8838;50.144;8.176;2023-03-04T12:03:18;21.57;;;7.37;;
17441;SDS011;8838;50.144;8.176;2023-03-04T12:06:05;12.77;;;6.27;;
17441;SDS011;8838;50.144;8.176;2023-03-04T12:08:48;18.47;;;7.00;;
17441;SDS011;8838;50.144;8.176;2023-03-04T12:11:22;17.17;;;6.47;;
17441;SDS011;8838;50.144;8.176;2023-03-04T12:14:13;19.23;;;7.30;;
17441;SDS011;8838;50.144;8.176;2023-03-04T12:16:56;13.80;;;6.67;;
17441;SDS011;8838;50.144;8.176;2023-03-04T12:19:49;15.77;;;6.83;;
17441;SDS011;8838;50.144;8.176;2023-03-04T12:22:50;18.37;;;8.13;;
17441;SDS011;8838;50.144;8.176;2023-03-04T12:31:22;20.00;;;8.87;;
17441;SDS011;8838;50.144;8.176;2023-03-04T12:34:08;14.67;;;6.50;;
17441;SDS011;8838;50.144;8.176;2023-03-04T12:39:55;14.53;;;6.17;;
17441;SDS011;8838;50.144;8.176;2023-03-04T12:42:42;18.27;;;9.43;;
17441;SDS011;8838;50.144;8.176;2023-03-04T12:45:19;11.37;;;6.97;;
17441;SDS011;8838;50.144;8.176;2023-03-04T12:47:54;17.13;;;7.93;;
17441;SDS011;8838;50.144;8.176;2023-03-04T12:50:35;11.00;;;5.67;;
17441;SDS011;8838;50.144;8.176;2023-03-04T12:53:09;15.83;;;6.17;;
17441;SDS011;8838;50.144;8.176;2023-03-04T12:55:43;20.47;;;6.90;;
17441;SDS011;8838;50.144;8.176;2023-03-04T12:58:12;13.03;;;6.40;;
17441;SDS011;8838;50.144;8.176;2023-03-04T13:00:44;13.97;;;6.23;;
17441;SDS011;8838;50.144;8.176;2023-03-04T13:03:22;13.77;;;6.70;;
17441;SDS011;8838;50.144;8.176;2023-03-04T13:06:00;15.07;;;6.90;;
17441;SDS011;8838;50.144;8.176;2023-03-04T13:08:35;15.10;;;7.40;;
17441;SDS011;8838;50.144;8.176;2023-03-04T13:14:21;19.70;;;7.33;;
17441;SDS011;8838;50.144;8.176;2023-03-04T13:16:54;14.87;;;6.67;;
17441;SDS011;8838;50.144;8.176;2023-03-04T13:22:25;15.13;;;6.70;;
17441;SDS011;8838;50.144;8.176;2023-03-04T13:24:53;17.90;;;7.97;;
17441;SDS011;8838;50.144;8.176;2023-03-04T13:39:13;15.27;;;6.43;;
17441;SDS011;8838;50.144;8.176;2023-03-04T13:41:49;15.63;;;6.77;;
17441;SDS011;8838;50.144;8.176;2023-03-04T13:44:34;19.77;;;7.43;;
17441;SDS011;8838;50.144;8.176;2023-03-04T13:47:29;20.60;;;6.93;;
17441;SDS011;8838;50.144;8.176;2023-03-04T13:50:21;17.27;;;7.30;;
17441;SDS011;8838;50.144;8.176;2023-03-04T13:52:53;23.23;;;8.13;;
17441;SDS011;8838;50.144;8.176;2023-03-04T13:55:35;20.93;;;8.30;;
17441;SDS011;8838;50.144;8.176;2023-03-04T13:58:12;17.67;;;8.33;;
17441;SDS011;8838;50.144;8.176;2023-03-04T14:00:46;24.00;;;8.30;;
17441;SDS011;8838;50.144;8.176;2023-03-04T14:03:18;23.43;;;8.43;;
17441;SDS011;8838;50.144;8.176;2023-03-04T14:08:36;22.17;;;8.30;;
17441;SDS011;8838;50.144;8.176;2023-03-04T14:11:04;20.47;;;7.97;;
17441;SDS011;8838;50.144;8.176;2023-03-04T14:13:36;19.30;;;8.33;;
17441;SDS011;8838;50.144;8.176;2023-03-04T14:16:05;17.63;;;8.13;;
17441;SDS011;8838;50.144;8.176;2023-03-04T14:18:32;18.10;;;8.07;;
17441;SDS011;8838;50.144;8.176;2023-03-04T14:20:59;19.03;;;8.70;;
17441;SDS011;8838;50.144;8.176;2023-03-04T14:23:27;19.73;;;8.63;;
17441;SDS011;8838;50.144;8.176;2023-03-04T14:26:10;20.93;;;8.47;;
17441;SDS011;8838;50.144;8.176;2023-03-04T14:28:42;17.67;;;7.90;;
17441;SDS011;8838;50.144;8.176;2023-03-04T14:31:14;18.37;;;7.73;;
17441;SDS011;8838;50.144;8.176;2023-03-04T14:33:43;27.77;;;8.80;;
17441;SDS011;8838;50.144;8.176;2023-03-04T14:36:18;18.37;;;7.93;;
17441;SDS011;8838;50.144;8.176;2023-03-04T14:38:49;21.23;;;9.30;;
17441;SDS011;8838;50.144;8.176;2023-03-04T14:41:24;17.70;;;8.43;;
17441;SDS011;8838;50.144;8.176;2023-03-04T14:43:58;16.67;;;7.90;;
17441;SDS011;8838;50.144;8.176;2023-03-04T14:46:33;23.77;;;8.70;;
17441;SDS011;8838;50.144;8.176;2023-03-04T14:49:05;15.90;;;7.67;;
17441;SDS011;8838;50.144;8.176;2023-03-04T14:51:37;19.47;;;8.17;;
17441;SDS011;8838;50.144;8.176;2023-03-04T14:54:21;21.43;;;8.67;;
17441;SDS011;8838;50.144;8.176;2023-03-04T14:56:59;18.20;;;8.63;;
17441;SDS011;8838;50.144;8.176;2023-03-04T14:59:45;16.97;;;7.80;;
17441;SDS011;8838;50.144;8.176;2023-03-04T15:05:06;20.50;;;8.53;;
17441;SDS011;8838;50.144;8.176;2023-03-04T15:07:39;17.47;;;8.40;;
17441;SDS011;8838;50.144;8.176;2023-03-04T15:10:10;17.97;;;8.20;;
17441;SDS011;8838;50.144;8.176;2023-03-04T15:12:39;21.60;;;8.77;;
17441;SDS011;8838;50.144;8.176;2023-03-04T15:17:56;17.40;;;8.63;;
17441;SDS011;8838;50.144;8.176;2023-03-04T15:20:24;17.10;;;8.27;;
17441;SDS011;8838;50.144;8.176;2023-03-04T15:22:56;18.67;;;8.33;;
17441;SDS011;8838;50.144;8.176;2023-03-04T15:25:32;27.07;;;10.60;;
17441;SDS011;8838;50.144;8.176;2023-03-04T15:28:01;19.43;;;8.97;;
17441;SDS011;8838;50.144;8.176;2023-03-04T15:30:29;18.20;;;8.70;;
17441;SDS011;8838;50.144;8.176;2023-03-04T15:32:57;21.47;;;8.67;;